createdAt,value
2022-09-26T00:04:50.526Z,10.33
2022-09-26T00:09:55.776Z,10.27
2022-09-26T00:14:59.059Z,10.21
2022-09-26T00:20:02.376Z,10.19
2022-09-26T00:25:06.552Z,10.23
2022-09-26T00:30:11.803Z,10.23
2022-09-26T00:35:14.996Z,10.21
2022-09-26T00:40:18.140Z,10.17
2022-09-26T00:45:24.533Z,10.13
2022-09-26T00:50:41.629Z,10.06
2022-09-26T00:55:59.006Z,9.99
2022-09-26T01:01:02.778Z,9.96
2022-09-26T01:06:06.630Z,9.94
2022-09-26T01:11:16.660Z,9.93
2022-09-26T01:16:20.513Z,9.97
2022-09-26T01:21:48.341Z,9.98
2022-09-26T01:27:18.339Z,9.94
2022-09-26T01:33:14.532Z,9.87
2022-09-26T01:38:43.255Z,9.81
2022-09-26T01:43:53.936Z,9.76
2022-09-26T01:49:34.458Z,9.74
2022-09-26T01:54:53.108Z,9.77
2022-09-26T02:00:03.281Z,9.80
2022-09-26T02:05:16.764Z,9.85
2022-09-26T02:10:31.238Z,9.87
2022-09-26T02:15:37.343Z,9.83
2022-09-26T02:20:49.432Z,9.64
2022-09-26T02:25:52.542Z,9.55
2022-09-26T02:30:56.638Z,9.48
2022-09-26T02:35:59.842Z,9.45
2022-09-26T02:41:14.889Z,9.53
2022-09-26T02:47:05.293Z,9.58
2022-09-26T02:52:47.607Z,9.59
2022-09-26T02:58:39.045Z,9.59
2022-09-26T03:04:00.218Z,9.52
2022-09-26T03:09:06.114Z,9.43
2022-09-26T03:14:10.886Z,9.35
2022-09-26T03:19:35.717Z,9.27
2022-09-26T03:24:42.667Z,9.21
2022-09-26T03:29:46.101Z,9.25
2022-09-26T03:34:49.152Z,9.29
2022-09-26T03:39:52.522Z,9.26
2022-09-26T03:44:56.159Z,9.19
2022-09-26T03:49:59.188Z,9.18
2022-09-26T03:55:02.239Z,9.12
2022-09-26T04:00:08.177Z,9.06
2022-09-26T04:05:11.686Z,9.11
2022-09-26T04:10:15.050Z,9.16
2022-09-26T04:15:18.141Z,9.17
2022-09-26T04:20:21.188Z,9.25
2022-09-26T04:25:24.147Z,9.32
2022-09-26T04:30:27.160Z,9.31
2022-09-26T04:35:30.208Z,9.26
2022-09-26T04:40:33.420Z,9.17
2022-09-26T04:45:36.544Z,9.06
2022-09-26T04:50:39.650Z,9.08
2022-09-26T04:55:48.272Z,9.12
2022-09-26T05:00:52.775Z,9.15
2022-09-26T05:05:56.351Z,9.08
2022-09-26T05:10:59.392Z,8.90
2022-09-26T05:16:03.833Z,8.74
2022-09-26T05:21:07.730Z,8.68
2022-09-26T05:26:27.091Z,8.73
2022-09-26T05:31:37.344Z,8.90
2022-09-26T05:36:42.995Z,9.10
2022-09-26T05:41:45.885Z,9.20
2022-09-26T05:46:50.541Z,9.31
2022-09-26T05:51:53.942Z,9.43
2022-09-26T05:56:56.832Z,9.51
2022-09-26T06:01:59.779Z,9.57
2022-09-26T06:07:03.312Z,9.70
2022-09-26T06:12:06.232Z,9.87
2022-09-26T06:17:09.131Z,10.14
2022-09-26T06:22:12.012Z,10.38
2022-09-26T06:27:14.906Z,10.57
2022-09-26T06:32:17.848Z,10.72
2022-09-26T06:37:20.726Z,10.85
2022-09-26T06:42:25.358Z,10.93
2022-09-26T06:47:30.319Z,10.99
2022-09-26T06:52:34.904Z,11.20
2022-09-26T06:57:40.401Z,11.42
2022-09-26T07:02:52.735Z,11.61
2022-09-26T07:07:56.253Z,11.75
2022-09-26T07:13:08.074Z,11.77
2022-09-26T07:18:11.219Z,11.81
2022-09-26T07:23:16.346Z,11.92
2022-09-26T07:28:19.289Z,12.08
2022-09-26T07:33:22.159Z,12.21
2022-09-26T07:38:25.985Z,12.33
2022-09-26T07:44:04.185Z,12.46
2022-09-26T07:49:10.461Z,12.64
2022-09-26T07:54:13.625Z,12.84
2022-09-26T07:59:16.510Z,13.04
2022-09-26T08:04:19.386Z,13.21
2022-09-26T08:09:23.069Z,13.31
2022-09-26T08:14:25.916Z,13.39
2022-09-26T08:19:29.174Z,13.50
2022-09-26T08:24:32.088Z,13.60
2022-09-26T08:29:35.110Z,13.79
2022-09-26T08:34:39.173Z,13.88
2022-09-26T08:39:42.078Z,13.90
2022-09-26T08:45:26.038Z,13.97
2022-09-26T08:50:41.779Z,14.02
2022-09-26T08:55:48.679Z,14.01
2022-09-26T09:00:57.684Z,14.04
2022-09-26T09:06:11.433Z,14.15
2022-09-26T09:11:55.446Z,14.28
2022-09-26T09:17:41.746Z,14.40
2022-09-26T09:23:08.164Z,14.45
2022-09-26T09:28:33.802Z,14.50
2022-09-26T09:33:47.728Z,14.57
2022-09-26T09:38:52.456Z,14.69
2022-09-26T09:44:03.799Z,14.84
2022-09-26T09:49:09.409Z,15.00
2022-09-26T09:54:47.885Z,15.09
2022-09-26T10:00:12.178Z,15.10
2022-09-26T10:05:31.087Z,15.12
2022-09-26T10:11:04.335Z,15.12
2022-09-26T10:16:10.266Z,15.24
2022-09-26T10:21:17.921Z,15.40
2022-09-26T10:26:34.621Z,15.60
2022-09-26T10:31:42.961Z,15.75
2022-09-26T10:36:46.441Z,15.88
2022-09-26T10:41:56.106Z,15.95
2022-09-26T10:47:08.532Z,16.10
2022-09-26T10:52:28.854Z,16.20
2022-09-26T10:57:45.427Z,16.28
2022-09-26T11:02:54.431Z,16.37
2022-09-26T11:07:57.654Z,16.44
2022-09-26T11:13:18.378Z,16.36
2022-09-26T11:18:33.357Z,16.33
2022-09-26T11:23:57.846Z,16.33
2022-09-26T11:29:40.163Z,16.36
2022-09-26T11:34:43.815Z,16.43
2022-09-26T11:40:32.178Z,16.53
2022-09-26T11:46:09.568Z,16.56
2022-09-26T11:51:45.841Z,16.58
2022-09-26T11:57:47.552Z,16.59
2022-09-26T12:03:53.760Z,16.53
2022-09-26T12:09:26.741Z,16.35
2022-09-26T12:14:29.555Z,16.35
2022-09-26T12:20:07.172Z,16.42
2022-09-26T12:25:27.157Z,16.47
2022-09-26T12:30:40.639Z,16.48
2022-09-26T12:36:04.619Z,16.51
2022-09-26T12:41:14.350Z,16.51
2022-09-26T12:47:02.224Z,16.51
2022-09-26T12:52:46.867Z,16.55
2022-09-26T12:57:55.382Z,16.56
2022-09-26T13:03:14.006Z,16.55
2022-09-26T13:08:44.560Z,16.50
2022-09-26T13:14:27.354Z,16.44
2022-09-26T13:19:41.233Z,16.36
2022-09-26T13:24:59.295Z,16.33
2022-09-26T13:30:13.508Z,16.29
2022-09-26T13:35:29.059Z,16.29
2022-09-26T13:40:54.552Z,16.26
2022-09-26T13:46:20.908Z,16.26
2022-09-26T13:51:28.504Z,16.25
2022-09-26T13:56:35.087Z,16.23
2022-09-26T14:01:42.463Z,16.15
2022-09-26T14:07:36.071Z,16.04
2022-09-26T14:13:08.558Z,15.99
2022-09-26T14:18:50.499Z,15.97
2022-09-26T14:24:42.034Z,15.95
2022-09-26T14:30:00.809Z,15.88
2022-09-26T14:35:18.794Z,15.82
2022-09-26T14:40:52.199Z,15.71
2022-09-26T14:46:14.326Z,15.59
2022-09-26T14:51:19.336Z,15.46
2022-09-26T14:56:29.644Z,15.43
2022-09-26T15:01:38.667Z,15.45
2022-09-26T15:06:50.893Z,15.50
2022-09-26T15:11:59.643Z,15.55
2022-09-26T15:17:02.826Z,15.60
2022-09-26T15:22:29.492Z,15.60
2022-09-26T15:27:33.829Z,15.53
2022-09-26T15:32:37.082Z,15.46
2022-09-26T15:37:41.293Z,15.40
2022-09-26T15:43:01.881Z,15.34
2022-09-26T15:48:20.035Z,15.33
2022-09-26T15:53:42.668Z,15.29
2022-09-26T15:58:57.893Z,15.21
2022-09-26T16:04:32.020Z,15.12
2022-09-26T16:09:40.255Z,15.01
2022-09-26T16:15:06.122Z,14.92
2022-09-26T16:20:17.999Z,14.87
2022-09-26T16:25:54.889Z,14.91
2022-09-26T16:30:58.926Z,14.99
2022-09-26T16:36:19.591Z,15.00
2022-09-26T16:41:59.968Z,14.91
2022-09-26T16:47:00.317Z,14.71
2022-09-26T16:52:36.744Z,14.59
2022-09-26T16:58:05.277Z,14.62
2022-09-26T17:03:27.759Z,14.71
2022-09-26T17:08:30.664Z,14.69
2022-09-26T17:13:35.964Z,14.55
2022-09-26T17:18:39.732Z,14.40
2022-09-26T17:23:43.220Z,14.23
2022-09-26T17:28:48.170Z,14.15
2022-09-26T17:33:53.720Z,14.19
2022-09-26T17:39:01.194Z,14.25
2022-09-26T17:44:04.162Z,14.26
2022-09-26T17:49:24.703Z,14.21
2022-09-26T17:54:40.886Z,14.07
2022-09-26T17:59:43.998Z,13.94
2022-09-26T18:04:46.946Z,13.91
2022-09-26T18:09:51.608Z,13.90
2022-09-26T18:14:57.999Z,13.88
2022-09-26T18:20:01.253Z,13.83
2022-09-26T18:25:15.105Z,13.77
2022-09-26T18:30:19.324Z,13.67
2022-09-26T18:35:26.052Z,13.55
2022-09-26T18:40:30.249Z,13.50
2022-09-26T18:45:37.768Z,13.50
2022-09-26T18:50:40.692Z,13.47
2022-09-26T18:56:02.204Z,13.37
2022-09-26T19:01:12.702Z,13.24
2022-09-26T19:06:23.820Z,13.12
2022-09-26T19:11:29.371Z,13.02
2022-09-26T19:16:32.242Z,12.98
2022-09-26T19:21:44.713Z,12.98
2022-09-26T19:26:53.612Z,12.99
2022-09-26T19:31:56.730Z,12.94
2022-09-26T19:37:01.537Z,12.85
2022-09-26T19:42:04.490Z,12.75
2022-09-26T19:47:21.670Z,12.67
2022-09-26T19:52:24.551Z,12.69
2022-09-26T19:57:27.513Z,12.70
2022-09-26T20:02:32.995Z,12.66
2022-09-26T20:07:35.941Z,12.67
2022-09-26T20:12:38.811Z,12.60
2022-09-26T20:17:44.802Z,12.50
2022-09-26T20:22:48.343Z,12.33
2022-09-26T20:27:51.576Z,12.33
2022-09-26T20:32:54.308Z,12.37
2022-09-26T20:38:05.916Z,12.43
2022-09-26T20:43:16.183Z,12.43
2022-09-26T20:48:26.281Z,12.33
2022-09-26T20:53:29.180Z,12.18
2022-09-26T20:58:32.194Z,12.01
2022-09-26T21:03:35.094Z,11.95
2022-09-26T21:08:37.960Z,11.97
2022-09-26T21:13:42.487Z,12.03
2022-09-26T21:18:49.347Z,12.09
2022-09-26T21:23:53.734Z,12.10
2022-09-26T21:28:57.609Z,12.03
2022-09-26T21:34:01.296Z,11.93
2022-09-26T21:39:05.530Z,11.88
2022-09-26T21:44:18.144Z,11.85
2022-09-26T21:49:21.046Z,11.86
2022-09-26T21:54:32.167Z,11.77
2022-09-26T21:59:38.928Z,11.66
2022-09-26T22:04:41.787Z,11.58
2022-09-26T22:09:44.711Z,11.53
2022-09-26T22:14:47.589Z,11.58
2022-09-26T22:19:51.426Z,11.61
2022-09-26T22:24:54.288Z,11.62
2022-09-26T22:29:57.154Z,11.60
2022-09-26T22:35:00.023Z,11.58
2022-09-26T22:40:04.105Z,11.44
2022-09-26T22:45:07.649Z,11.29
2022-09-26T22:50:10.690Z,11.15
2022-09-26T22:55:13.709Z,11.13
2022-09-26T23:00:17.070Z,11.22
2022-09-26T23:05:20.160Z,11.22
2022-09-26T23:10:23.018Z,11.12
2022-09-26T23:15:26.079Z,11.10
2022-09-26T23:20:28.979Z,11.12
2022-09-26T23:25:31.868Z,11.16
2022-09-26T23:30:34.725Z,11.23
2022-09-26T23:35:37.720Z,11.30
2022-09-26T23:40:41.168Z,11.34
2022-09-26T23:45:44.267Z,11.39
2022-09-26T23:50:47.551Z,11.48
2022-09-26T23:55:52.842Z,11.46
